Terminal Aerodrome Forecast
Issued by NWS Buffalo, NY

Home | Current Version | Previous Version | Text Only | Print | Product List | Glossary On
Versions: 1 2 3 4 5 6 7 8 9 10 11 12 13 14 15 16 17 18 19 20 21 22 23
000
FTUS41 KBUF 010256 AAA
TAFART
TAF AMD
KART 010256Z 0103/0124 07006KT P6SM VCSH SCT050 BKN080
     FM010900 10006KT P6SM SCT025 OVC035
     FM012100 07010KT P6SM BKN035=

USA.gov is the U.S. government's official web portal to all federal, state and local government web resources and services.